sensor_id;sensor_type;location;lat;lon;timestamp;P1;durP1;ratioP1;P2;durP2;ratioP2
67278;SDS011;54193;53.746;10.058;2023-03-14T00:00:27;11.27;;;2.85;;
67278;SDS011;54193;53.746;10.058;2023-03-14T00:03:12;8.73;;;2.60;;
67278;SDS011;54193;53.746;10.058;2023-03-14T00:06:01;10.07;;;2.67;;
67278;SDS011;54193;53.746;10.058;2023-03-14T00:08:48;8.95;;;2.30;;
67278;SDS011;54193;53.746;10.058;2023-03-14T00:11:34;13.13;;;2.83;;
67278;SDS011;54193;53.746;10.058;2023-03-14T00:14:19;8.02;;;2.30;;
67278;SDS011;54193;53.746;10.058;2023-03-14T00:17:05;7.70;;;2.35;;
67278;SDS011;54193;53.746;10.058;2023-03-14T00:19:51;8.70;;;2.20;;
67278;SDS011;54193;53.746;10.058;2023-03-14T00:22:39;8.23;;;1.90;;
67278;SDS011;54193;53.746;10.058;2023-03-14T00:25:26;10.10;;;2.45;;
67278;SDS011;54193;53.746;10.058;2023-03-14T00:28:12;8.45;;;2.15;;
67278;SDS011;54193;53.746;10.058;2023-03-14T00:30:58;6.77;;;1.90;;
67278;SDS011;54193;53.746;10.058;2023-03-14T00:33:44;7.72;;;2.47;;
67278;SDS011;54193;53.746;10.058;2023-03-14T00:36:30;8.32;;;2.13;;
67278;SDS011;54193;53.746;10.058;2023-03-14T00:39:15;8.25;;;2.28;;
67278;SDS011;54193;53.746;10.058;2023-03-14T00:42:01;9.27;;;2.53;;
67278;SDS011;54193;53.746;10.058;2023-03-14T00:44:47;9.02;;;2.92;;
67278;SDS011;54193;53.746;10.058;2023-03-14T00:47:32;10.82;;;2.95;;
67278;SDS011;54193;53.746;10.058;2023-03-14T00:50:18;9.70;;;2.07;;
67278;SDS011;54193;53.746;10.058;2023-03-14T00:53:04;7.10;;;2.10;;
67278;SDS011;54193;53.746;10.058;2023-03-14T00:55:49;10.52;;;2.90;;
67278;SDS011;54193;53.746;10.058;2023-03-14T00:58:35;8.63;;;2.80;;
67278;SDS011;54193;53.746;10.058;2023-03-14T01:01:21;11.75;;;2.50;;
67278;SDS011;54193;53.746;10.058;2023-03-14T01:04:07;6.40;;;1.88;;
67278;SDS011;54193;53.746;10.058;2023-03-14T01:06:53;9.05;;;2.28;;
67278;SDS011;54193;53.746;10.058;2023-03-14T01:09:39;8.20;;;2.05;;
67278;SDS011;54193;53.746;10.058;2023-03-14T01:12:24;6.72;;;1.80;;
67278;SDS011;54193;53.746;10.058;2023-03-14T01:15:10;11.07;;;2.40;;
67278;SDS011;54193;53.746;10.058;2023-03-14T01:17:56;8.87;;;2.40;;
67278;SDS011;54193;53.746;10.058;2023-03-14T01:20:41;9.98;;;2.40;;
67278;SDS011;54193;53.746;10.058;2023-03-14T01:23:27;12.90;;;2.05;;
67278;SDS011;54193;53.746;10.058;2023-03-14T01:26:13;7.33;;;2.00;;
67278;SDS011;54193;53.746;10.058;2023-03-14T01:29:00;11.43;;;2.30;;
67278;SDS011;54193;53.746;10.058;2023-03-14T01:31:47;7.20;;;1.88;;
67278;SDS011;54193;53.746;10.058;2023-03-14T01:34:32;8.20;;;2.20;;
67278;SDS011;54193;53.746;10.058;2023-03-14T01:37:18;11.90;;;2.50;;
67278;SDS011;54193;53.746;10.058;2023-03-14T01:40:04;9.40;;;2.50;;
67278;SDS011;54193;53.746;10.058;2023-03-14T01:42:56;7.38;;;2.03;;
67278;SDS011;54193;53.746;10.058;2023-03-14T01:48:59;7.60;;;2.03;;
67278;SDS011;54193;53.746;10.058;2023-03-14T01:52:10;8.02;;;2.38;;
67278;SDS011;54193;53.746;10.058;2023-03-14T01:55:09;7.77;;;2.40;;
67278;SDS011;54193;53.746;10.058;2023-03-14T01:58:01;10.40;;;2.42;;
67278;SDS011;54193;53.746;10.058;2023-03-14T02:00:49;7.05;;;2.28;;
67278;SDS011;54193;53.746;10.058;2023-03-14T02:03:36;8.60;;;2.45;;
67278;SDS011;54193;53.746;10.058;2023-03-14T02:06:31;11.07;;;2.55;;
67278;SDS011;54193;53.746;10.058;2023-03-14T02:09:22;8.20;;;2.25;;
67278;SDS011;54193;53.746;10.058;2023-03-14T02:12:09;6.55;;;1.83;;
67278;SDS011;54193;53.746;10.058;2023-03-14T02:14:56;13.33;;;2.30;;
67278;SDS011;54193;53.746;10.058;2023-03-14T02:17:42;7.38;;;2.85;;
67278;SDS011;54193;53.746;10.058;2023-03-14T02:20:32;5.10;;;1.75;;
67278;SDS011;54193;53.746;10.058;2023-03-14T02:23:27;8.93;;;2.57;;
67278;SDS011;54193;53.746;10.058;2023-03-14T02:26:36;7.75;;;2.33;;
67278;SDS011;54193;53.746;10.058;2023-03-14T02:29:25;12.15;;;2.95;;
67278;SDS011;54193;53.746;10.058;2023-03-14T02:32:11;9.20;;;2.50;;
67278;SDS011;54193;53.746;10.058;2023-03-14T02:34:59;9.98;;;2.70;;
67278;SDS011;54193;53.746;10.058;2023-03-14T02:40:35;8.98;;;2.42;;
67278;SDS011;54193;53.746;10.058;2023-03-14T02:43:21;11.03;;;2.50;;
67278;SDS011;54193;53.746;10.058;2023-03-14T02:46:07;11.10;;;3.10;;
67278;SDS011;54193;53.746;10.058;2023-03-14T02:49:07;5.90;;;2.30;;
67278;SDS011;54193;53.746;10.058;2023-03-14T02:51:55;7.53;;;2.43;;
67278;SDS011;54193;53.746;10.058;2023-03-14T02:54:41;6.22;;;2.58;;
67278;SDS011;54193;53.746;10.058;2023-03-14T02:57:26;9.98;;;3.10;;
67278;SDS011;54193;53.746;10.058;2023-03-14T03:00:12;6.78;;;2.90;;
67278;SDS011;54193;53.746;10.058;2023-03-14T03:02:58;8.30;;;2.90;;
67278;SDS011;54193;53.746;10.058;2023-03-14T03:05:47;8.05;;;2.42;;
67278;SDS011;54193;53.746;10.058;2023-03-14T03:08:36;9.93;;;3.25;;
67278;SDS011;54193;53.746;10.058;2023-03-14T03:11:21;9.87;;;3.53;;
67278;SDS011;54193;53.746;10.058;2023-03-14T03:14:07;11.15;;;3.08;;
67278;SDS011;54193;53.746;10.058;2023-03-14T03:16:52;9.77;;;2.70;;
67278;SDS011;54193;53.746;10.058;2023-03-14T03:19:38;9.10;;;3.10;;
67278;SDS011;54193;53.746;10.058;2023-03-14T03:22:24;9.02;;;3.50;;
67278;SDS011;54193;53.746;10.058;2023-03-14T03:25:09;8.00;;;2.95;;
67278;SDS011;54193;53.746;10.058;2023-03-14T03:27:56;9.70;;;2.80;;
67278;SDS011;54193;53.746;10.058;2023-03-14T03:30:42;5.72;;;2.70;;
67278;SDS011;54193;53.746;10.058;2023-03-14T03:33:28;7.03;;;2.72;;
67278;SDS011;54193;53.746;10.058;2023-03-14T03:36:14;9.32;;;3.50;;
67278;SDS011;54193;53.746;10.058;2023-03-14T03:38:59;7.57;;;2.93;;
67278;SDS011;54193;53.746;10.058;2023-03-14T03:41:45;9.05;;;3.13;;
67278;SDS011;54193;53.746;10.058;2023-03-14T03:44:30;10.73;;;4.05;;
67278;SDS011;54193;53.746;10.058;2023-03-14T03:47:16;12.43;;;3.80;;
67278;SDS011;54193;53.746;10.058;2023-03-14T03:50:02;10.55;;;3.30;;
67278;SDS011;54193;53.746;10.058;2023-03-14T03:52:48;9.65;;;3.30;;
67278;SDS011;54193;53.746;10.058;2023-03-14T03:55:33;9.13;;;3.28;;
67278;SDS011;54193;53.746;10.058;2023-03-14T03:58:19;9.20;;;3.17;;
67278;SDS011;54193;53.746;10.058;2023-03-14T04:01:05;7.63;;;3.05;;
67278;SDS011;54193;53.746;10.058;2023-03-14T04:03:52;9.65;;;2.95;;
67278;SDS011;54193;53.746;10.058;2023-03-14T04:06:37;7.87;;;2.30;;
67278;SDS011;54193;53.746;10.058;2023-03-14T04:09:23;8.65;;;3.05;;
67278;SDS011;54193;53.746;10.058;2023-03-14T04:12:08;8.05;;;2.88;;
67278;SDS011;54193;53.746;10.058;2023-03-14T04:14:56;10.07;;;3.10;;
67278;SDS011;54193;53.746;10.058;2023-03-14T04:17:41;10.02;;;3.00;;
67278;SDS011;54193;53.746;10.058;2023-03-14T04:20:27;9.02;;;3.25;;
67278;SDS011;54193;53.746;10.058;2023-03-14T04:23:13;8.15;;;3.00;;
67278;SDS011;54193;53.746;10.058;2023-03-14T04:25:59;8.40;;;3.33;;
67278;SDS011;54193;53.746;10.058;2023-03-14T04:28:44;6.57;;;2.55;;
67278;SDS011;54193;53.746;10.058;2023-03-14T04:31:30;8.95;;;3.40;;
67278;SDS011;54193;53.746;10.058;2023-03-14T04:34:17;8.80;;;3.00;;
67278;SDS011;54193;53.746;10.058;2023-03-14T04:37:02;9.00;;;3.53;;
67278;SDS011;54193;53.746;10.058;2023-03-14T04:39:48;7.57;;;2.75;;
67278;SDS011;54193;53.746;10.058;2023-03-14T04:42:34;11.57;;;3.40;;
67278;SDS011;54193;53.746;10.058;2023-03-14T04:45:19;7.38;;;2.40;;
67278;SDS011;54193;53.746;10.058;2023-03-14T04:48:05;9.07;;;2.55;;
67278;SDS011;54193;53.746;10.058;2023-03-14T04:50:51;4.55;;;1.55;;
67278;SDS011;54193;53.746;10.058;2023-03-14T04:53:37;4.32;;;1.42;;
67278;SDS011;54193;53.746;10.058;2023-03-14T04:56:23;5.97;;;1.23;;
67278;SDS011;54193;53.746;10.058;2023-03-14T04:59:08;4.38;;;0.98;;
67278;SDS011;54193;53.746;10.058;2023-03-14T05:01:54;3.30;;;0.90;;
67278;SDS011;54193;53.746;10.058;2023-03-14T05:04:39;6.38;;;1.33;;
67278;SDS011;54193;53.746;10.058;2023-03-14T05:07:25;4.43;;;1.17;;
67278;SDS011;54193;53.746;10.058;2023-03-14T05:10:11;4.17;;;1.10;;
67278;SDS011;54193;53.746;10.058;2023-03-14T05:12:56;4.38;;;1.00;;
67278;SDS011;54193;53.746;10.058;2023-03-14T05:15:42;6.68;;;1.20;;
67278;SDS011;54193;53.746;10.058;2023-03-14T05:18:28;3.58;;;1.00;;
67278;SDS011;54193;53.746;10.058;2023-03-14T05:21:13;3.70;;;0.95;;
67278;SDS011;54193;53.746;10.058;2023-03-14T05:23:59;3.85;;;0.90;;
67278;SDS011;54193;53.746;10.058;2023-03-14T05:26:44;5.80;;;1.08;;
67278;SDS011;54193;53.746;10.058;2023-03-14T05:29:30;5.70;;;1.20;;
67278;SDS011;54193;53.746;10.058;2023-03-14T05:32:16;4.88;;;1.00;;
67278;SDS011;54193;53.746;10.058;2023-03-14T05:35:02;7.78;;;1.15;;
67278;SDS011;54193;53.746;10.058;2023-03-14T05:37:47;3.70;;;1.30;;
67278;SDS011;54193;53.746;10.058;2023-03-14T05:40:33;5.65;;;1.20;;
67278;SDS011;54193;53.746;10.058;2023-03-14T05:43:20;7.05;;;1.33;;
67278;SDS011;54193;53.746;10.058;2023-03-14T05:46:05;8.43;;;1.48;;
67278;SDS011;54193;53.746;10.058;2023-03-14T05:48:51;5.68;;;1.63;;
67278;SDS011;54193;53.746;10.058;2023-03-14T05:51:36;7.13;;;1.70;;
67278;SDS011;54193;53.746;10.058;2023-03-14T05:54:22;5.88;;;1.55;;
67278;SDS011;54193;53.746;10.058;2023-03-14T05:57:08;4.47;;;1.37;;
67278;SDS011;54193;53.746;10.058;2023-03-14T05:59:53;5.60;;;1.85;;
67278;SDS011;54193;53.746;10.058;2023-03-14T06:02:39;9.88;;;2.45;;
67278;SDS011;54193;53.746;10.058;2023-03-14T06:05:25;6.93;;;2.30;;
67278;SDS011;54193;53.746;10.058;2023-03-14T06:08:10;6.55;;;2.10;;
67278;SDS011;54193;53.746;10.058;2023-03-14T06:10:56;6.50;;;2.63;;
67278;SDS011;54193;53.746;10.058;2023-03-14T06:13:42;10.05;;;3.22;;
67278;SDS011;54193;53.746;10.058;2023-03-14T06:16:28;8.85;;;3.50;;
67278;SDS011;54193;53.746;10.058;2023-03-14T06:19:14;8.48;;;2.80;;
67278;SDS011;54193;53.746;10.058;2023-03-14T06:22:00;9.75;;;3.30;;
67278;SDS011;54193;53.746;10.058;2023-03-14T06:24:45;6.97;;;2.57;;
67278;SDS011;54193;53.746;10.058;2023-03-14T06:27:32;8.50;;;3.03;;
67278;SDS011;54193;53.746;10.058;2023-03-14T06:30:18;10.77;;;3.80;;
67278;SDS011;54193;53.746;10.058;2023-03-14T06:33:04;12.73;;;4.40;;
67278;SDS011;54193;53.746;10.058;2023-03-14T06:35:51;12.15;;;4.32;;
67278;SDS011;54193;53.746;10.058;2023-03-14T06:38:36;12.98;;;4.30;;
67278;SDS011;54193;53.746;10.058;2023-03-14T06:41:22;16.17;;;5.53;;
67278;SDS011;54193;53.746;10.058;2023-03-14T06:44:09;11.93;;;4.47;;
67278;SDS011;54193;53.746;10.058;2023-03-14T06:46:54;10.00;;;4.28;;
67278;SDS011;54193;53.746;10.058;2023-03-14T06:49:40;12.15;;;5.25;;
67278;SDS011;54193;53.746;10.058;2023-03-14T06:52:25;14.33;;;5.10;;
67278;SDS011;54193;53.746;10.058;2023-03-14T06:55:13;19.80;;;5.57;;
67278;SDS011;54193;53.746;10.058;2023-03-14T06:58:01;12.32;;;5.20;;
67278;SDS011;54193;53.746;10.058;2023-03-14T07:00:47;15.00;;;3.97;;
67278;SDS011;54193;53.746;10.058;2023-03-14T07:03:33;10.13;;;4.55;;
67278;SDS011;54193;53.746;10.058;2023-03-14T07:06:20;14.32;;;5.15;;
67278;SDS011;54193;53.746;10.058;2023-03-14T07:09:05;14.02;;;4.80;;
67278;SDS011;54193;53.746;10.058;2023-03-14T07:11:51;8.95;;;3.63;;
67278;SDS011;54193;53.746;10.058;2023-03-14T07:14:37;11.75;;;4.82;;
67278;SDS011;54193;53.746;10.058;2023-03-14T07:17:22;11.18;;;4.78;;
67278;SDS011;54193;53.746;10.058;2023-03-14T07:20:08;10.43;;;4.20;;
67278;SDS011;54193;53.746;10.058;2023-03-14T07:22:54;11.90;;;4.07;;
67278;SDS011;54193;53.746;10.058;2023-03-14T07:25:40;10.93;;;4.22;;
67278;SDS011;54193;53.746;10.058;2023-03-14T07:28:26;12.73;;;4.57;;
67278;SDS011;54193;53.746;10.058;2023-03-14T07:31:12;13.70;;;4.22;;
67278;SDS011;54193;53.746;10.058;2023-03-14T07:33:58;12.52;;;3.88;;
67278;SDS011;54193;53.746;10.058;2023-03-14T07:36:44;11.52;;;4.25;;
67278;SDS011;54193;53.746;10.058;2023-03-14T07:39:31;10.07;;;3.50;;
67278;SDS011;54193;53.746;10.058;2023-03-14T07:42:16;10.02;;;3.55;;
67278;SDS011;54193;53.746;10.058;2023-03-14T07:45:02;8.75;;;3.05;;
67278;SDS011;54193;53.746;10.058;2023-03-14T07:47:48;7.60;;;3.20;;
67278;SDS011;54193;53.746;10.058;2023-03-14T07:50:34;7.30;;;3.08;;
67278;SDS011;54193;53.746;10.058;2023-03-14T07:53:19;13.35;;;3.28;;
67278;SDS011;54193;53.746;10.058;2023-03-14T07:56:07;7.37;;;2.27;;
67278;SDS011;54193;53.746;10.058;2023-03-14T07:58:53;8.48;;;2.53;;
67278;SDS011;54193;53.746;10.058;2023-03-14T08:01:38;9.05;;;2.85;;
67278;SDS011;54193;53.746;10.058;2023-03-14T08:04:24;7.95;;;2.78;;
67278;SDS011;54193;53.746;10.058;2023-03-14T08:07:10;8.20;;;2.42;;
67278;SDS011;54193;53.746;10.058;2023-03-14T08:09:55;6.80;;;3.25;;
67278;SDS011;54193;53.746;10.058;2023-03-14T08:12:41;7.55;;;2.42;;
67278;SDS011;54193;53.746;10.058;2023-03-14T08:15:28;6.33;;;2.10;;
67278;SDS011;54193;53.746;10.058;2023-03-14T08:18:15;7.75;;;1.90;;
67278;SDS011;54193;53.746;10.058;2023-03-14T08:21:01;6.55;;;1.95;;
67278;SDS011;54193;53.746;10.058;2023-03-14T08:23:46;4.50;;;2.00;;
67278;SDS011;54193;53.746;10.058;2023-03-14T08:26:32;7.70;;;2.40;;
67278;SDS011;54193;53.746;10.058;2023-03-14T08:29:18;6.85;;;2.20;;
67278;SDS011;54193;53.746;10.058;2023-03-14T08:32:03;9.10;;;3.00;;
67278;SDS011;54193;53.746;10.058;2023-03-14T08:34:49;10.13;;;2.55;;
67278;SDS011;54193;53.746;10.058;2023-03-14T08:37:35;8.18;;;2.45;;
67278;SDS011;54193;53.746;10.058;2023-03-14T08:40:21;6.25;;;2.15;;
67278;SDS011;54193;53.746;10.058;2023-03-14T08:43:07;7.60;;;1.97;;
67278;SDS011;54193;53.746;10.058;2023-03-14T08:45:52;6.18;;;2.30;;
67278;SDS011;54193;53.746;10.058;2023-03-14T08:48:38;6.75;;;1.70;;
67278;SDS011;54193;53.746;10.058;2023-03-14T08:51:24;8.27;;;2.33;;
67278;SDS011;54193;53.746;10.058;2023-03-14T08:54:10;4.75;;;1.65;;
67278;SDS011;54193;53.746;10.058;2023-03-14T08:56:56;9.02;;;2.30;;
67278;SDS011;54193;53.746;10.058;2023-03-14T08:59:42;5.72;;;2.05;;
67278;SDS011;54193;53.746;10.058;2023-03-14T09:02:28;8.15;;;1.88;;
67278;SDS011;54193;53.746;10.058;2023-03-14T09:05:14;7.00;;;2.17;;
67278;SDS011;54193;53.746;10.058;2023-03-14T09:07:59;6.05;;;2.30;;
67278;SDS011;54193;53.746;10.058;2023-03-14T09:10:46;6.53;;;2.30;;
67278;SDS011;54193;53.746;10.058;2023-03-14T09:13:32;8.40;;;2.78;;
67278;SDS011;54193;53.746;10.058;2023-03-14T09:16:17;7.45;;;2.63;;
67278;SDS011;54193;53.746;10.058;2023-03-14T09:19:03;7.13;;;2.43;;
67278;SDS011;54193;53.746;10.058;2023-03-14T09:21:49;5.47;;;2.40;;
67278;SDS011;54193;53.746;10.058;2023-03-14T09:24:35;10.02;;;2.83;;
67278;SDS011;54193;53.746;10.058;2023-03-14T09:27:20;9.27;;;2.90;;
67278;SDS011;54193;53.746;10.058;2023-03-14T09:30:06;9.15;;;3.15;;
67278;SDS011;54193;53.746;10.058;2023-03-14T09:32:52;12.18;;;3.20;;
67278;SDS011;54193;53.746;10.058;2023-03-14T09:35:38;8.35;;;2.45;;
67278;SDS011;54193;53.746;10.058;2023-03-14T09:38:24;10.57;;;3.37;;
67278;SDS011;54193;53.746;10.058;2023-03-14T09:41:15;10.77;;;3.53;;
67278;SDS011;54193;53.746;10.058;2023-03-14T09:44:04;6.85;;;2.53;;
67278;SDS011;54193;53.746;10.058;2023-03-14T09:46:54;7.87;;;1.87;;
67278;SDS011;54193;53.746;10.058;2023-03-14T09:49:43;3.47;;;1.00;;
67278;SDS011;54193;53.746;10.058;2023-03-14T09:52:33;3.10;;;1.17;;
67278;SDS011;54193;53.746;10.058;2023-03-14T09:55:22;4.00;;;1.30;;
67278;SDS011;54193;53.746;10.058;2023-03-14T09:58:12;4.00;;;1.40;;
67278;SDS011;54193;53.746;10.058;2023-03-14T10:01:01;5.13;;;2.00;;
67278;SDS011;54193;53.746;10.058;2023-03-14T10:03:47;4.30;;;1.58;;
67278;SDS011;54193;53.746;10.058;2023-03-14T10:06:32;2.87;;;0.90;;
67278;SDS011;54193;53.746;10.058;2023-03-14T10:09:20;3.00;;;1.00;;
67278;SDS011;54193;53.746;10.058;2023-03-14T10:12:10;2.42;;;0.60;;
67278;SDS011;54193;53.746;10.058;2023-03-14T10:14:57;3.83;;;1.10;;
67278;SDS011;54193;53.746;10.058;2023-03-14T10:17:52;2.88;;;0.90;;
67278;SDS011;54193;53.746;10.058;2023-03-14T10:20:39;2.88;;;0.65;;
67278;SDS011;54193;53.746;10.058;2023-03-14T10:23:27;2.30;;;0.73;;
67278;SDS011;54193;53.746;10.058;2023-03-14T10:26:16;2.90;;;0.80;;
67278;SDS011;54193;53.746;10.058;2023-03-14T10:29:11;3.25;;;0.82;;
67278;SDS011;54193;53.746;10.058;2023-03-14T10:32:05;3.13;;;0.80;;
67278;SDS011;54193;53.746;10.058;2023-03-14T10:35:05;2.70;;;0.80;;
67278;SDS011;54193;53.746;10.058;2023-03-14T10:38:00;4.45;;;0.70;;
67278;SDS011;54193;53.746;10.058;2023-03-14T10:40:49;3.80;;;0.85;;
67278;SDS011;54193;53.746;10.058;2023-03-14T10:43:38;2.27;;;0.60;;
67278;SDS011;54193;53.746;10.058;2023-03-14T10:46:24;1.90;;;0.65;;
67278;SDS011;54193;53.746;10.058;2023-03-14T10:49:22;2.42;;;0.73;;
67278;SDS011;54193;53.746;10.058;2023-03-14T10:52:14;3.95;;;0.77;;
67278;SDS011;54193;53.746;10.058;2023-03-14T10:55:11;2.65;;;0.93;;
67278;SDS011;54193;53.746;10.058;2023-03-14T10:58:00;2.85;;;0.60;;
67278;SDS011;54193;53.746;10.058;2023-03-14T11:07:24;2.40;;;0.52;;
67278;SDS011;54193;53.746;10.058;2023-03-14T11:10:25;2.53;;;0.60;;
67278;SDS011;54193;53.746;10.058;2023-03-14T11:16:50;4.13;;;0.93;;
67278;SDS011;54193;53.746;10.058;2023-03-14T11:23:21;3.47;;;0.97;;
67278;SDS011;54193;53.746;10.058;2023-03-14T11:29:20;2.55;;;0.70;;
67278;SDS011;54193;53.746;10.058;2023-03-14T11:32:13;4.30;;;0.60;;
67278;SDS011;54193;53.746;10.058;2023-03-14T11:35:03;2.55;;;0.60;;
67278;SDS011;54193;53.746;10.058;2023-03-14T11:41:14;5.15;;;0.65;;
67278;SDS011;54193;53.746;10.058;2023-03-14T11:44:04;3.13;;;0.60;;
67278;SDS011;54193;53.746;10.058;2023-03-14T11:50:07;5.68;;;0.60;;
67278;SDS011;54193;53.746;10.058;2023-03-14T11:55:57;7.05;;;0.98;;
67278;SDS011;54193;53.746;10.058;2023-03-14T11:58:47;2.63;;;0.90;;
67278;SDS011;54193;53.746;10.058;2023-03-14T12:01:57;3.10;;;0.68;;
67278;SDS011;54193;53.746;10.058;2023-03-14T12:10:55;4.05;;;0.75;;
67278;SDS011;54193;53.746;10.058;2023-03-14T12:13:50;6.30;;;0.80;;
67278;SDS011;54193;53.746;10.058;2023-03-14T12:16:38;3.55;;;1.00;;
67278;SDS011;54193;53.746;10.058;2023-03-14T12:19:25;6.88;;;0.90;;
67278;SDS011;54193;53.746;10.058;2023-03-14T12:25:06;4.47;;;0.70;;
67278;SDS011;54193;53.746;10.058;2023-03-14T12:28:44;5.85;;;0.90;;
67278;SDS011;54193;53.746;10.058;2023-03-14T12:40:00;5.78;;;0.93;;
67278;SDS011;54193;53.746;10.058;2023-03-14T12:43:03;6.17;;;1.17;;
67278;SDS011;54193;53.746;10.058;2023-03-14T12:46:14;6.47;;;0.82;;
67278;SDS011;54193;53.746;10.058;2023-03-14T12:51:47;5.67;;;0.90;;
67278;SDS011;54193;53.746;10.058;2023-03-14T12:54:35;7.38;;;1.10;;
67278;SDS011;54193;53.746;10.058;2023-03-14T13:00:33;10.68;;;2.58;;
67278;SDS011;54193;53.746;10.058;2023-03-14T13:03:36;5.20;;;1.27;;
67278;SDS011;54193;53.746;10.058;2023-03-14T13:06:47;5.65;;;0.82;;
67278;SDS011;54193;53.746;10.058;2023-03-14T13:09:50;4.22;;;1.00;;
67278;SDS011;54193;53.746;10.058;2023-03-14T13:12:47;6.37;;;0.97;;
67278;SDS011;54193;53.746;10.058;2023-03-14T13:15:40;5.50;;;1.20;;
67278;SDS011;54193;53.746;10.058;2023-03-14T13:18:34;6.75;;;1.20;;
67278;SDS011;54193;53.746;10.058;2023-03-14T13:21:27;7.77;;;1.13;;
67278;SDS011;54193;53.746;10.058;2023-03-14T13:24:21;7.38;;;1.40;;
67278;SDS011;54193;53.746;10.058;2023-03-14T13:27:15;7.05;;;1.50;;
67278;SDS011;54193;53.746;10.058;2023-03-14T13:30:21;6.00;;;1.25;;
67278;SDS011;54193;53.746;10.058;2023-03-14T13:33:11;5.18;;;1.45;;
67278;SDS011;54193;53.746;10.058;2023-03-14T13:36:02;10.55;;;1.50;;
67278;SDS011;54193;53.746;10.058;2023-03-14T13:38:55;6.78;;;1.40;;
67278;SDS011;54193;53.746;10.058;2023-03-14T13:41:45;6.07;;;1.03;;
67278;SDS011;54193;53.746;10.058;2023-03-14T13:44:38;5.72;;;1.00;;
67278;SDS011;54193;53.746;10.058;2023-03-14T13:47:25;9.57;;;1.15;;
67278;SDS011;54193;53.746;10.058;2023-03-14T13:50:13;4.20;;;1.20;;
67278;SDS011;54193;53.746;10.058;2023-03-14T13:53:03;5.55;;;1.20;;
67278;SDS011;54193;53.746;10.058;2023-03-14T13:55:49;8.70;;;1.15;;
67278;SDS011;54193;53.746;10.058;2023-03-14T13:58:37;4.93;;;1.45;;
67278;SDS011;54193;53.746;10.058;2023-03-14T14:01:25;4.80;;;0.85;;
67278;SDS011;54193;53.746;10.058;2023-03-14T14:04:16;5.82;;;1.08;;
67278;SDS011;54193;53.746;10.058;2023-03-14T14:07:08;6.72;;;1.25;;
67278;SDS011;54193;53.746;10.058;2023-03-14T14:09:57;5.80;;;1.20;;
67278;SDS011;54193;53.746;10.058;2023-03-14T14:12:46;3.90;;;1.00;;
67278;SDS011;54193;53.746;10.058;2023-03-14T14:15:40;5.25;;;0.90;;
67278;SDS011;54193;53.746;10.058;2023-03-14T14:18:28;5.77;;;1.07;;
67278;SDS011;54193;53.746;10.058;2023-03-14T14:21:16;3.25;;;0.80;;
67278;SDS011;54193;53.746;10.058;2023-03-14T14:24:02;4.68;;;0.85;;
67278;SDS011;54193;53.746;10.058;2023-03-14T14:26:58;5.38;;;1.15;;
67278;SDS011;54193;53.746;10.058;2023-03-14T14:29:56;5.88;;;1.00;;
67278;SDS011;54193;53.746;10.058;2023-03-14T14:32:50;4.18;;;1.13;;
67278;SDS011;54193;53.746;10.058;2023-03-14T14:35:36;16.73;;;6.05;;
67278;SDS011;54193;53.746;10.058;2023-03-14T14:38:22;5.63;;;1.40;;
67278;SDS011;54193;53.746;10.058;2023-03-14T14:41:10;3.55;;;0.98;;
67278;SDS011;54193;53.746;10.058;2023-03-14T14:43:56;4.70;;;1.08;;
67278;SDS011;54193;53.746;10.058;2023-03-14T14:46:43;11.60;;;1.40;;
67278;SDS011;54193;53.746;10.058;2023-03-14T14:49:30;3.78;;;0.70;;
67278;SDS011;54193;53.746;10.058;2023-03-14T14:52:21;4.53;;;0.50;;
67278;SDS011;54193;53.746;10.058;2023-03-14T14:55:18;4.20;;;1.00;;
67278;SDS011;54193;53.746;10.058;2023-03-14T14:58:12;2.65;;;0.70;;
67278;SDS011;54193;53.746;10.058;2023-03-14T15:03:53;4.47;;;0.80;;
67278;SDS011;54193;53.746;10.058;2023-03-14T15:06:41;4.20;;;0.87;;
67278;SDS011;54193;53.746;10.058;2023-03-14T15:09:28;6.55;;;0.90;;
67278;SDS011;54193;53.746;10.058;2023-03-14T15:12:14;6.18;;;1.17;;
67278;SDS011;54193;53.746;10.058;2023-03-14T15:14:59;5.90;;;1.20;;
67278;SDS011;54193;53.746;10.058;2023-03-14T15:17:45;5.15;;;0.82;;
67278;SDS011;54193;53.746;10.058;2023-03-14T15:20:31;6.85;;;1.00;;
67278;SDS011;54193;53.746;10.058;2023-03-14T15:23:19;4.10;;;0.80;;
67278;SDS011;54193;53.746;10.058;2023-03-14T15:26:12;5.38;;;0.90;;
67278;SDS011;54193;53.746;10.058;2023-03-14T15:29:00;4.65;;;1.00;;
67278;SDS011;54193;53.746;10.058;2023-03-14T15:31:45;8.50;;;1.17;;
67278;SDS011;54193;53.746;10.058;2023-03-14T15:34:31;7.73;;;1.70;;
67278;SDS011;54193;53.746;10.058;2023-03-14T15:37:17;8.48;;;1.77;;
67278;SDS011;54193;53.746;10.058;2023-03-14T15:40:03;6.68;;;1.65;;
67278;SDS011;54193;53.746;10.058;2023-03-14T15:42:56;7.30;;;1.23;;
67278;SDS011;54193;53.746;10.058;2023-03-14T15:45:42;7.07;;;1.60;;
67278;SDS011;54193;53.746;10.058;2023-03-14T15:48:28;6.75;;;1.05;;
67278;SDS011;54193;53.746;10.058;2023-03-14T15:51:15;6.38;;;1.17;;
67278;SDS011;54193;53.746;10.058;2023-03-14T15:54:00;10.70;;;1.33;;
67278;SDS011;54193;53.746;10.058;2023-03-14T15:56:46;8.02;;;1.63;;
67278;SDS011;54193;53.746;10.058;2023-03-14T15:59:32;8.05;;;2.10;;
67278;SDS011;54193;53.746;10.058;2023-03-14T16:02:18;7.20;;;1.20;;
67278;SDS011;54193;53.746;10.058;2023-03-14T16:05:03;4.03;;;1.10;;
67278;SDS011;54193;53.746;10.058;2023-03-14T16:07:49;5.72;;;1.30;;
67278;SDS011;54193;53.746;10.058;2023-03-14T16:10:35;2.83;;;0.63;;
67278;SDS011;54193;53.746;10.058;2023-03-14T16:13:21;9.45;;;1.45;;
67278;SDS011;54193;53.746;10.058;2023-03-14T16:16:07;8.43;;;1.50;;
67278;SDS011;54193;53.746;10.058;2023-03-14T16:18:56;12.35;;;1.55;;
67278;SDS011;54193;53.746;10.058;2023-03-14T16:21:41;7.15;;;1.48;;
67278;SDS011;54193;53.746;10.058;2023-03-14T16:24:28;8.77;;;1.70;;
67278;SDS011;54193;53.746;10.058;2023-03-14T16:27:13;6.07;;;1.27;;
67278;SDS011;54193;53.746;10.058;2023-03-14T16:29:59;6.40;;;1.30;;
67278;SDS011;54193;53.746;10.058;2023-03-14T16:32:45;8.63;;;1.60;;
67278;SDS011;54193;53.746;10.058;2023-03-14T16:35:32;6.60;;;1.10;;
67278;SDS011;54193;53.746;10.058;2023-03-14T16:38:17;8.00;;;1.40;;
67278;SDS011;54193;53.746;10.058;2023-03-14T16:41:05;5.07;;;1.00;;
67278;SDS011;54193;53.746;10.058;2023-03-14T16:43:51;7.85;;;1.25;;
67278;SDS011;54193;53.746;10.058;2023-03-14T16:46:38;7.43;;;1.33;;
67278;SDS011;54193;53.746;10.058;2023-03-14T16:49:24;11.15;;;2.72;;
67278;SDS011;54193;53.746;10.058;2023-03-14T16:52:09;12.10;;;2.10;;
67278;SDS011;54193;53.746;10.058;2023-03-14T16:54:55;9.65;;;1.40;;
67278;SDS011;54193;53.746;10.058;2023-03-14T16:57:41;9.83;;;2.57;;
67278;SDS011;54193;53.746;10.058;2023-03-14T17:00:26;8.98;;;1.30;;
67278;SDS011;54193;53.746;10.058;2023-03-14T17:03:12;7.72;;;1.60;;
67278;SDS011;54193;53.746;10.058;2023-03-14T17:06:01;5.77;;;1.40;;
67278;SDS011;54193;53.746;10.058;2023-03-14T17:08:48;6.25;;;1.10;;
67278;SDS011;54193;53.746;10.058;2023-03-14T17:11:34;5.93;;;1.40;;
67278;SDS011;54193;53.746;10.058;2023-03-14T17:14:21;6.70;;;1.05;;
67278;SDS011;54193;53.746;10.058;2023-03-14T17:17:06;10.15;;;1.60;;
67278;SDS011;54193;53.746;10.058;2023-03-14T17:19:53;9.32;;;1.40;;
67278;SDS011;54193;53.746;10.058;2023-03-14T17:22:38;6.57;;;1.60;;
67278;SDS011;54193;53.746;10.058;2023-03-14T17:25:24;7.43;;;1.40;;
67278;SDS011;54193;53.746;10.058;2023-03-14T17:28:12;7.35;;;1.50;;
67278;SDS011;54193;53.746;10.058;2023-03-14T17:33:54;5.43;;;0.90;;